Glencove, Washington
Current Conditions -  °F | °C
As of 12:53 PM on Friday 19 Dec 2014 (Local Time) from KTIW Reporting Station
Overcast Overcast  
Wind Chill: 50°   Ceiling: 4700
Heat Index: 50°   Visibility: 10mi
Dew Point: 41°   Wind: 15mph
Humidity: 71%   Direction: 180°S
Pressure: 29.95"   Gusts: NA
Location:  47.2986°N, 122.616°W
Report Text: KTIW 192053Z 18013KT 10SM FEW025 BKN047 OVC055 10/05 A2995 RMK AO2 SLP144 T01000050 51009
Loading
Personal Weather Stations






























Interactive Weather Map New forecast layout! Learn more

10-Day Weather Forecast

Advertisements
Track Severe Weather on mobile